createdAt,value
2023-03-08T00:04:40.092Z,96067.72
2023-03-08T00:09:41.851Z,96066.59
2023-03-08T00:14:43.506Z,96063.88
2023-03-08T00:19:45.192Z,96069.00
2023-03-08T00:24:46.935Z,96069.97
2023-03-08T00:29:48.562Z,96074.09
2023-03-08T00:34:51.239Z,96076.66
2023-03-08T00:39:54.084Z,96076.00
2023-03-08T00:44:55.733Z,96080.81
2023-03-08T00:49:58.091Z,96083.38
2023-03-08T00:54:59.703Z,96084.97
2023-03-08T01:00:02.203Z,96088.97
2023-03-08T01:05:04.965Z,96091.06
2023-03-08T01:10:07.070Z,96085.47
2023-03-08T01:15:09.019Z,96091.38
2023-03-08T01:20:11.239Z,96083.22
2023-03-08T01:25:15.018Z,96084.97
2023-03-08T01:30:17.076Z,96074.56
2023-03-08T01:35:19.421Z,96083.22
2023-03-08T01:40:23.157Z,96081.91
2023-03-08T01:46:13.051Z,96082.41
2023-03-08T01:51:21.897Z,96095.84
2023-03-08T01:56:24.721Z,96098.56
2023-03-08T02:01:26.722Z,96087.19
2023-03-08T02:06:32.090Z,96078.84
2023-03-08T02:11:35.830Z,96075.22
2023-03-08T02:16:38.055Z,96070.44
2023-03-08T02:21:39.814Z,96080.66
2023-03-08T02:26:41.495Z,96081.13
2023-03-08T02:31:43.235Z,96082.09
2023-03-08T02:36:44.849Z,96084.97
2023-03-08T02:41:46.462Z,96082.28
2023-03-08T02:46:48.644Z,96083.56
2023-03-08T02:51:50.436Z,96075.56
2023-03-08T02:56:52.105Z,96074.28
2023-03-08T03:01:53.927Z,96071.22
2023-03-08T03:06:57.158Z,96067.41
2023-03-08T03:11:59.155Z,96077.31
2023-03-08T03:17:01.467Z,96083.38
2023-03-08T03:22:03.651Z,96085.13
2023-03-08T03:27:06.103Z,96096.81
2023-03-08T03:32:09.768Z,96098.44
2023-03-08T03:37:11.700Z,96094.06
2023-03-08T03:42:16.433Z,96093.78
2023-03-08T03:47:25.765Z,96088.47
2023-03-08T03:52:31.787Z,96093.28
2023-03-08T03:57:37.897Z,96103.97
2023-03-08T04:02:40.640Z,96097.88
2023-03-08T04:07:45.339Z,96094.81
2023-03-08T04:12:50.691Z,96115.44
2023-03-08T04:17:54.014Z,96102.66
2023-03-08T04:22:57.931Z,96103.66
2023-03-08T04:28:06.043Z,96098.06
2023-03-08T04:33:08.107Z,96105.09
2023-03-08T04:38:18.926Z,96094.53
2023-03-08T04:43:23.835Z,96093.78
2023-03-08T04:48:26.579Z,96095.03
2023-03-08T04:53:29.566Z,96083.47
2023-03-08T04:58:31.647Z,96086.53
2023-03-08T05:03:33.578Z,96085.09
2023-03-08T05:08:36.238Z,96098.34
2023-03-08T05:13:40.345Z,96091.63
2023-03-08T05:18:43.826Z,96102.28
2023-03-08T05:23:47.020Z,96102.28
2023-03-08T05:28:51.754Z,96109.47
2023-03-08T05:33:56.467Z,96094.78
2023-03-08T05:39:11.729Z,96090.34
2023-03-08T05:44:23.989Z,96079.16
2023-03-08T05:49:28.859Z,96081.56
2023-03-08T05:54:31.630Z,96083.94
2023-03-08T05:59:38.129Z,96083.75
2023-03-08T06:04:43.660Z,96093.53
2023-03-08T06:09:47.205Z,96108.28
2023-03-08T06:14:51.112Z,96101.41
2023-03-08T06:19:55.558Z,96097.25
2023-03-08T06:24:57.925Z,96085.25
2023-03-08T06:30:08.924Z,96073.44
2023-03-08T06:35:11.208Z,96078.56
2023-03-08T06:40:20.852Z,96090.91
2023-03-08T06:45:22.594Z,96086.72
2023-03-08T06:50:24.372Z,96102.59
2023-03-08T06:55:26.665Z,96097.47
2023-03-08T07:00:29.529Z,96102.44
2023-03-08T07:05:31.331Z,96100.81
2023-03-08T07:10:33.449Z,96100.78
2023-03-08T07:15:39.002Z,96104.78
2023-03-08T07:20:40.634Z,96096.75
2023-03-08T07:25:42.282Z,96091.28
2023-03-08T07:30:52.361Z,96090.19
2023-03-08T07:35:54.017Z,96091.47
2023-03-08T07:40:56.669Z,96096.28
2023-03-08T07:46:02.688Z,96088.31
2023-03-08T07:51:07.392Z,96088.00
2023-03-08T07:56:09.673Z,96077.94
2023-03-08T08:01:12.574Z,96085.75
2023-03-08T08:06:14.232Z,96076.75
2023-03-08T08:11:17.715Z,96073.31
2023-03-08T08:16:19.415Z,96071.13
2023-03-08T08:21:21.769Z,96077.44
2023-03-08T08:26:23.798Z,96066.31
2023-03-08T08:31:31.892Z,96059.28
2023-03-08T08:36:33.539Z,96056.28
2023-03-08T08:41:35.112Z,96053.75
2023-03-08T08:46:36.723Z,96041.63
2023-03-08T08:51:38.370Z,96031.81
2023-03-08T08:56:42.991Z,96017.22
2023-03-08T09:01:44.921Z,96011.41
2023-03-08T09:06:47.306Z,96009.97
2023-03-08T09:11:54.976Z,95991.41
2023-03-08T09:16:57.099Z,95983.03
2023-03-08T09:21:58.802Z,95985.84
2023-03-08T09:27:00.418Z,95971.88
2023-03-08T09:32:02.073Z,95967.94
2023-03-08T09:37:05.812Z,95965.53
2023-03-08T09:42:27.634Z,95955.41
2023-03-08T09:47:41.831Z,95955.06
2023-03-08T09:52:50.559Z,95944.78
2023-03-08T09:57:54.268Z,95930.56
2023-03-08T10:03:36.410Z,95932.00
2023-03-08T10:09:06.494Z,95925.00
2023-03-08T10:14:19.513Z,95919.78
2023-03-08T10:19:31.816Z,95915.34
2023-03-08T10:24:48.532Z,95913.22
2023-03-08T10:29:58.884Z,95898.84
2023-03-08T10:35:04.578Z,95899.00
2023-03-08T10:40:10.968Z,95894.88
2023-03-08T10:45:12.654Z,95889.66
2023-03-08T10:50:18.590Z,95876.97
2023-03-08T10:55:23.401Z,95869.63
2023-03-08T11:00:37.041Z,95859.50
2023-03-08T11:05:39.433Z,95844.81
2023-03-08T11:10:41.050Z,95836.03
2023-03-08T11:15:52.280Z,95818.03
2023-03-08T11:21:00.138Z,95812.72
2023-03-08T11:26:20.518Z,95796.84
2023-03-08T11:31:50.708Z,95789.44
2023-03-08T11:37:12.498Z,95780.00
2023-03-08T11:42:14.032Z,95770.28
2023-03-08T11:47:34.848Z,95777.91
2023-03-08T11:52:58.011Z,95769.16
2023-03-08T11:58:31.132Z,95763.75
2023-03-08T12:03:47.172Z,95753.97
2023-03-08T12:08:49.617Z,95742.19
2023-03-08T12:13:57.892Z,95748.69
2023-03-08T12:19:31.922Z,95741.41
2023-03-08T12:24:42.641Z,95724.88
2023-03-08T12:29:57.444Z,95717.78
2023-03-08T12:35:23.800Z,95712.00
2023-03-08T12:40:27.883Z,95711.13
2023-03-08T12:45:31.050Z,95700.81
2023-03-08T12:50:40.541Z,95691.53
2023-03-08T12:55:43.374Z,95691.41
2023-03-08T13:00:45.160Z,95670.63
2023-03-08T13:05:49.714Z,95661.97
2023-03-08T13:11:00.966Z,95666.97
2023-03-08T13:16:15.765Z,95671.03
2023-03-08T13:21:27.856Z,95657.13
2023-03-08T13:26:51.108Z,95647.13
2023-03-08T13:31:55.702Z,95653.06
2023-03-08T13:36:57.805Z,95634.00
2023-03-08T13:42:09.545Z,95616.75
2023-03-08T13:47:34.327Z,95611.19
2023-03-08T13:52:39.058Z,95613.81
2023-03-08T13:57:42.250Z,95599.38
2023-03-08T14:02:46.550Z,95597.53
2023-03-08T14:08:03.239Z,95596.97
2023-03-08T14:13:07.113Z,95591.13
2023-03-08T14:18:22.033Z,95588.63
2023-03-08T14:23:25.143Z,95574.34
2023-03-08T14:29:13.382Z,95568.44
2023-03-08T14:34:25.945Z,95560.75
2023-03-08T14:39:30.615Z,95564.25
2023-03-08T14:44:32.286Z,95549.28
2023-03-08T14:49:33.935Z,95547.81
2023-03-08T14:54:38.534Z,95540.94
2023-03-08T14:59:41.501Z,95537.75
2023-03-08T15:04:44.945Z,95548.59
2023-03-08T15:09:48.617Z,95545.50
2023-03-08T15:14:50.228Z,95534.91
2023-03-08T15:19:51.893Z,95519.84
2023-03-08T15:24:53.818Z,95516.41
2023-03-08T15:29:55.426Z,95505.16
2023-03-08T15:34:57.029Z,95505.66
2023-03-08T15:39:58.666Z,95495.50
2023-03-08T15:45:00.321Z,95500.31
2023-03-08T15:50:02.507Z,95494.38
2023-03-08T15:55:04.510Z,95498.13
2023-03-08T16:00:11.624Z,95496.69
2023-03-08T16:05:14.771Z,95490.97
2023-03-08T16:10:16.634Z,95488.56
2023-03-08T16:15:19.104Z,95490.47
2023-03-08T16:20:23.177Z,95486.31
2023-03-08T16:25:24.974Z,95489.69
2023-03-08T16:30:26.694Z,95483.88
2023-03-08T16:35:28.365Z,95488.63
2023-03-08T16:40:31.293Z,95476.28
2023-03-08T16:45:33.013Z,95478.66
2023-03-08T16:50:34.650Z,95476.22
2023-03-08T16:55:36.517Z,95478.91
2023-03-08T17:00:38.284Z,95470.34
2023-03-08T17:05:45.721Z,95469.34
2023-03-08T17:10:47.371Z,95458.03
2023-03-08T17:15:49.039Z,95449.13
2023-03-08T17:20:53.278Z,95454.91
2023-03-08T17:25:55.008Z,95467.81
2023-03-08T17:30:56.700Z,95470.13
2023-03-08T17:36:02.143Z,95452.47
2023-03-08T17:41:09.077Z,95464.09
2023-03-08T17:46:18.233Z,95463.22
2023-03-08T17:51:26.193Z,95463.75
2023-03-08T17:56:30.509Z,95469.84
2023-03-08T18:01:32.459Z,95477.53
2023-03-08T18:06:35.404Z,95472.41
2023-03-08T18:11:40.973Z,95463.16
2023-03-08T18:16:44.951Z,95474.19
2023-03-08T18:21:54.040Z,95468.72
2023-03-08T18:26:58.120Z,95474.63
2023-03-08T18:32:00.138Z,95475.97
2023-03-08T18:37:02.216Z,95476.81
2023-03-08T18:42:04.265Z,95460.19
2023-03-08T18:47:06.231Z,95467.47
2023-03-08T18:52:08.038Z,95450.22
2023-03-08T18:57:09.943Z,95455.00
2023-03-08T19:02:12.101Z,95464.72
2023-03-08T19:07:14.062Z,95464.53
2023-03-08T19:12:15.975Z,95462.69
2023-03-08T19:17:17.855Z,95470.47
2023-03-08T19:22:19.855Z,95458.47
2023-03-08T19:27:21.909Z,95463.94
2023-03-08T19:32:23.920Z,95457.31
2023-03-08T19:37:25.888Z,95453.03
2023-03-08T19:42:27.852Z,95451.34
2023-03-08T19:47:29.674Z,95455.53
2023-03-08T19:52:31.678Z,95451.97
2023-03-08T19:57:33.776Z,95451.28
2023-03-08T20:02:35.694Z,95456.97
2023-03-08T20:07:38.932Z,95456.66
2023-03-08T20:12:40.727Z,95460.44
2023-03-08T20:17:42.545Z,95462.28
2023-03-08T20:22:45.096Z,95467.03
2023-03-08T20:27:46.960Z,95462.81
2023-03-08T20:32:50.215Z,95468.16
2023-03-08T20:37:52.048Z,95467.50
2023-03-08T20:42:57.821Z,95457.59
2023-03-08T20:47:59.716Z,95457.34
2023-03-08T20:53:01.615Z,95454.72
2023-03-08T20:58:03.572Z,95451.63
2023-03-08T21:03:05.497Z,95447.28
2023-03-08T21:08:07.360Z,95450.28
2023-03-08T21:13:13.045Z,95442.41
2023-03-08T21:18:14.934Z,95435.88
2023-03-08T21:23:21.005Z,95440.38
2023-03-08T21:28:22.967Z,95438.19
2023-03-08T21:33:24.996Z,95433.22
2023-03-08T21:38:26.842Z,95428.09
2023-03-08T21:43:28.915Z,95420.16
2023-03-08T21:48:30.683Z,95412.56
2023-03-08T21:53:32.779Z,95410.25
2023-03-08T21:58:36.014Z,95401.81
2023-03-08T22:03:37.824Z,95409.06
2023-03-08T22:08:39.640Z,95404.13
2023-03-08T22:13:41.602Z,95388.25
2023-03-08T22:18:43.481Z,95384.50
2023-03-08T22:23:45.511Z,95380.72
2023-03-08T22:28:47.684Z,95389.47
2023-03-08T22:33:49.562Z,95376.41
2023-03-08T22:38:51.381Z,95366.44
2023-03-08T22:43:54.364Z,95365.72
2023-03-08T22:48:58.243Z,95376.66
2023-03-08T22:54:04.046Z,95361.97
2023-03-08T22:59:05.855Z,95356.09
2023-03-08T23:04:08.901Z,95362.28
2023-03-08T23:09:12.742Z,95361.19
2023-03-08T23:14:14.886Z,95361.44
2023-03-08T23:19:19.886Z,95356.75
2023-03-08T23:24:21.734Z,95348.06
2023-03-08T23:29:23.513Z,95343.94
2023-03-08T23:34:25.490Z,95344.34
2023-03-08T23:39:27.340Z,95341.72
2023-03-08T23:44:29.170Z,95335.78
2023-03-08T23:49:31.085Z,95330.06
2023-03-08T23:54:32.938Z,95322.63
2023-03-08T23:59:34.771Z,95326.22
